createdAt,value
2018-10-16T00:02:20.716Z,10.30
2018-10-16T00:04:48.850Z,10.20
2018-10-16T00:07:16.948Z,10.30
2018-10-16T00:09:45.045Z,10.30
2018-10-16T00:12:13.198Z,10.20
2018-10-16T00:14:41.290Z,10.20
2018-10-16T00:17:09.538Z,10.20
2018-10-16T00:19:37.637Z,10.20
2018-10-16T00:22:05.738Z,10.30
2018-10-16T00:24:33.847Z,10.20
2018-10-16T00:27:02.025Z,10.20
2018-10-16T00:29:30.124Z,10.20
2018-10-16T00:31:58.486Z,10.10
2018-10-16T00:34:26.609Z,10.10
2018-10-16T00:36:54.733Z,10.10
2018-10-16T00:39:22.834Z,10.20
2018-10-16T00:41:53.048Z,10.10
2018-10-16T00:44:21.282Z,10.00
2018-10-16T00:46:49.445Z,9.90
2018-10-16T00:49:17.588Z,9.90
2018-10-16T00:51:45.704Z,9.90
2018-10-16T00:54:13.951Z,9.90
2018-10-16T00:56:42.061Z,9.80
2018-10-16T00:59:10.293Z,9.80
2018-10-16T01:01:38.436Z,9.80
2018-10-16T01:04:07.461Z,9.90
2018-10-16T01:06:36.357Z,9.80
2018-10-16T01:09:08.377Z,9.80
2018-10-16T01:11:36.820Z,9.70
2018-10-16T01:14:05.134Z,9.70
2018-10-16T01:16:33.269Z,9.70
2018-10-16T01:19:01.438Z,9.60
2018-10-16T01:21:29.623Z,9.60
2018-10-16T01:23:57.773Z,9.60
2018-10-16T01:26:25.933Z,9.60
2018-10-16T01:28:54.070Z,9.60
2018-10-16T01:31:22.339Z,9.50
2018-10-16T01:33:50.457Z,9.60
2018-10-16T01:36:18.642Z,9.50
2018-10-16T01:38:46.778Z,9.50
2018-10-16T01:41:14.897Z,9.40
2018-10-16T01:43:43.013Z,9.40
2018-10-16T01:46:11.169Z,9.40
2018-10-16T01:48:39.313Z,9.30
2018-10-16T01:51:07.913Z,9.20
2018-10-16T01:53:39.239Z,9.30
2018-10-16T01:56:07.369Z,9.30
2018-10-16T01:58:35.517Z,9.40
2018-10-16T02:01:03.645Z,9.30
2018-10-16T02:03:31.769Z,9.30
2018-10-16T02:05:59.868Z,9.20
2018-10-16T02:08:27.994Z,9.20
2018-10-16T02:10:56.210Z,9.20
2018-10-16T02:13:24.429Z,9.20
2018-10-16T02:15:52.607Z,9.20
2018-10-16T02:18:20.749Z,9.10
2018-10-16T02:20:48.881Z,9.10
2018-10-16T02:23:17.013Z,9.10
2018-10-16T02:25:45.206Z,9.10
2018-10-16T02:28:13.357Z,9.10
2018-10-16T02:30:41.574Z,9.10
2018-10-16T02:33:09.698Z,9.10
2018-10-16T02:35:37.845Z,9.10
2018-10-16T02:38:06.005Z,9.10
2018-10-16T02:40:34.365Z,9.10
2018-10-16T02:43:02.537Z,9.10
2018-10-16T02:45:30.740Z,9.00
2018-10-16T02:47:58.866Z,9.00
2018-10-16T02:50:27.014Z,9.00
2018-10-16T02:52:55.180Z,9.10
2018-10-16T02:55:23.319Z,9.10
2018-10-16T02:57:51.438Z,9.20
2018-10-16T03:00:19.655Z,9.20
2018-10-16T03:02:47.777Z,9.20
2018-10-16T03:05:15.938Z,9.20
2018-10-16T03:07:44.089Z,9.20
2018-10-16T03:10:12.201Z,9.30
2018-10-16T03:12:40.486Z,9.40
2018-10-16T03:15:10.749Z,9.40
2018-10-16T03:17:39.117Z,9.40
2018-10-16T03:20:07.613Z,9.50
2018-10-16T03:22:35.737Z,9.50
2018-10-16T03:25:04.005Z,9.50
2018-10-16T03:27:32.125Z,9.40
2018-10-16T03:30:00.273Z,9.30
2018-10-16T03:32:28.398Z,9.30
2018-10-16T03:34:56.572Z,9.30
2018-10-16T03:37:24.729Z,9.30
2018-10-16T03:39:52.917Z,9.30
2018-10-16T03:42:21.088Z,9.30
2018-10-16T03:44:49.241Z,9.20
2018-10-16T03:47:17.370Z,9.20
2018-10-16T03:49:45.477Z,9.20
2018-10-16T03:52:13.591Z,9.30
2018-10-16T03:54:41.753Z,9.30
2018-10-16T03:57:09.864Z,9.20
2018-10-16T03:59:37.982Z,9.20
2018-10-16T04:02:06.121Z,9.10
2018-10-16T04:04:34.307Z,9.10
2018-10-16T04:07:02.393Z,9.10
2018-10-16T04:09:30.489Z,9.10
2018-10-16T04:11:58.593Z,9.10
2018-10-16T04:14:26.677Z,9.10
2018-10-16T04:16:54.805Z,9.10
2018-10-16T04:19:22.901Z,9.10
2018-10-16T04:21:51.041Z,9.20
2018-10-16T04:24:19.137Z,9.10
2018-10-16T04:26:47.258Z,9.00
2018-10-16T04:29:15.458Z,9.00
2018-10-16T04:31:45.301Z,9.00
2018-10-16T04:34:13.394Z,8.90
2018-10-16T04:36:41.600Z,8.90
2018-10-16T04:39:11.745Z,9.00
2018-10-16T04:41:39.936Z,9.00
2018-10-16T04:44:08.129Z,8.90
2018-10-16T04:46:36.265Z,8.90
2018-10-16T04:49:05.131Z,9.00
2018-10-16T04:51:33.269Z,9.00
2018-10-16T04:54:01.592Z,8.90
2018-10-16T04:56:29.805Z,8.90
2018-10-16T04:58:57.930Z,8.90
2018-10-16T05:01:26.061Z,8.90
2018-10-16T05:03:54.199Z,8.80
2018-10-16T05:06:22.329Z,8.80
2018-10-16T05:08:50.482Z,8.80
2018-10-16T05:11:18.746Z,8.80
2018-10-16T05:13:46.893Z,8.80
2018-10-16T05:16:15.107Z,8.70
2018-10-16T05:18:43.260Z,8.70
2018-10-16T05:21:11.432Z,8.80
2018-10-16T05:23:39.542Z,8.80
2018-10-16T05:26:07.773Z,8.80
2018-10-16T05:28:35.946Z,8.70
2018-10-16T05:31:04.165Z,8.70
2018-10-16T05:33:32.259Z,8.70
2018-10-16T05:36:00.381Z,8.60
2018-10-16T05:38:28.526Z,8.60
2018-10-16T05:40:56.729Z,8.50
2018-10-16T05:43:24.952Z,8.50
2018-10-16T05:45:53.109Z,8.50
2018-10-16T05:48:21.258Z,8.50
2018-10-16T05:50:49.393Z,8.40
2018-10-16T05:53:17.666Z,8.40
2018-10-16T05:55:45.755Z,8.50
2018-10-16T05:58:14.014Z,8.50
2018-10-16T06:00:43.551Z,8.50
2018-10-16T06:03:11.696Z,8.50
2018-10-16T06:05:39.912Z,8.60
2018-10-16T06:08:08.395Z,8.60
2018-10-16T06:10:38.657Z,8.60
2018-10-16T06:13:06.790Z,8.70
2018-10-16T06:15:36.010Z,8.70
2018-10-16T06:18:04.424Z,8.70
2018-10-16T06:20:32.558Z,8.70
2018-10-16T06:23:00.942Z,8.70
2018-10-16T06:25:29.089Z,8.80
2018-10-16T06:27:57.206Z,8.80
2018-10-16T06:30:25.369Z,8.90
2018-10-16T06:32:53.478Z,8.90
2018-10-16T06:35:21.797Z,8.90
2018-10-16T06:37:49.932Z,8.90
2018-10-16T06:40:18.151Z,8.90
2018-10-16T06:42:46.274Z,9.00
2018-10-16T06:45:14.484Z,9.10
2018-10-16T06:47:42.671Z,9.10
2018-10-16T06:50:10.954Z,9.10
2018-10-16T06:52:39.147Z,9.20
2018-10-16T06:55:07.274Z,9.20
2018-10-16T06:57:36.035Z,9.30
2018-10-16T07:00:04.932Z,9.40
2018-10-16T07:02:33.050Z,9.50
2018-10-16T07:05:01.179Z,9.50
2018-10-16T07:07:29.269Z,9.60
2018-10-16T07:09:57.393Z,9.80
2018-10-16T07:12:25.624Z,9.90
2018-10-16T07:14:53.781Z,10.00
2018-10-16T07:17:21.934Z,10.10
2018-10-16T07:19:50.053Z,10.30
2018-10-16T07:22:18.168Z,10.40
2018-10-16T07:24:46.256Z,10.50
2018-10-16T07:27:14.435Z,10.50
2018-10-16T07:29:42.530Z,10.60
2018-10-16T07:32:10.645Z,10.70
2018-10-16T07:34:38.728Z,10.90
2018-10-16T07:37:06.869Z,11.00
2018-10-16T07:39:35.022Z,11.10
2018-10-16T07:42:03.188Z,11.20
2018-10-16T07:44:31.308Z,11.30
2018-10-16T07:46:59.433Z,11.40
2018-10-16T07:49:27.537Z,11.60
2018-10-16T07:51:55.678Z,11.70
2018-10-16T07:54:23.789Z,11.90
2018-10-16T07:56:51.898Z,12.00
2018-10-16T07:59:20.142Z,12.20
2018-10-16T08:01:48.236Z,12.50
2018-10-16T08:04:16.325Z,12.70
2018-10-16T08:06:44.421Z,13.30
2018-10-16T08:09:14.869Z,15.20
2018-10-16T08:11:44.037Z,17.90
2018-10-16T08:14:12.753Z,19.70
2018-10-16T08:16:40.930Z,20.40
2018-10-16T08:19:09.045Z,21.70
2018-10-16T08:21:37.202Z,23.00
2018-10-16T08:24:05.639Z,23.80
2018-10-16T08:26:34.745Z,24.50
2018-10-16T08:29:02.861Z,25.00
2018-10-16T08:31:31.061Z,25.30
2018-10-16T08:33:59.369Z,25.50
2018-10-16T08:36:27.565Z,25.60
2018-10-16T08:39:09.457Z,25.60
2018-10-16T08:42:03.569Z,25.70
2018-10-16T08:45:11.249Z,25.30
2018-10-16T08:47:50.785Z,25.30
2018-10-16T08:50:31.145Z,24.90
2018-10-16T08:52:59.233Z,24.50
2018-10-16T08:55:27.380Z,22.80
2018-10-16T08:57:55.483Z,20.60
2018-10-16T09:00:23.561Z,19.00
2018-10-16T09:02:51.681Z,18.00
2018-10-16T09:05:19.789Z,17.40
2018-10-16T09:07:47.949Z,17.00
2018-10-16T09:10:16.049Z,17.80
2018-10-16T09:12:44.102Z,19.80
2018-10-16T09:15:12.186Z,21.20
2018-10-16T09:17:40.397Z,20.80
2018-10-16T09:20:08.837Z,20.30
2018-10-16T09:22:36.970Z,21.40
2018-10-16T09:25:06.338Z,22.90
2018-10-16T09:27:34.345Z,24.10
2018-10-16T09:30:02.441Z,25.20
2018-10-16T09:32:30.534Z,25.70
2018-10-16T09:34:58.673Z,25.90
2018-10-16T09:37:26.766Z,26.10
2018-10-16T09:39:54.821Z,26.70
2018-10-16T09:42:22.890Z,27.10
2018-10-16T09:44:51.057Z,26.80
2018-10-16T09:47:19.162Z,26.50
2018-10-16T09:49:47.321Z,27.00
2018-10-16T09:52:15.493Z,27.60
2018-10-16T09:54:43.632Z,27.90
2018-10-16T09:57:11.791Z,28.20
2018-10-16T09:59:40.032Z,27.80
2018-10-16T10:02:08.152Z,27.90
2018-10-16T10:04:36.377Z,28.20
2018-10-16T10:07:04.592Z,28.20
2018-10-16T10:09:32.801Z,28.10
2018-10-16T10:12:00.925Z,28.40
2018-10-16T10:14:29.102Z,28.60
2018-10-16T10:16:57.305Z,28.50
2018-10-16T10:19:25.404Z,28.10
2018-10-16T10:21:53.666Z,28.20
2018-10-16T10:24:21.785Z,28.50
2018-10-16T10:26:49.912Z,28.30
2018-10-16T10:29:24.669Z,27.80
2018-10-16T10:31:52.881Z,28.00
2018-10-16T10:34:21.013Z,27.60
2018-10-16T10:36:49.181Z,27.20
2018-10-16T10:39:17.454Z,27.60
2018-10-16T10:41:45.641Z,27.70
2018-10-16T10:44:13.810Z,27.20
2018-10-16T10:46:42.052Z,27.00
2018-10-16T10:49:10.182Z,26.60
2018-10-16T10:51:38.989Z,26.30
2018-10-16T10:54:06.918Z,26.00
2018-10-16T10:56:35.128Z,25.60
2018-10-16T10:59:03.133Z,25.30
2018-10-16T11:01:31.232Z,24.90
2018-10-16T11:03:59.310Z,24.60
2018-10-16T11:06:27.573Z,24.60
2018-10-16T11:08:55.841Z,24.40
2018-10-16T11:11:23.916Z,24.40
2018-10-16T11:13:52.040Z,24.30
2018-10-16T11:16:20.214Z,24.10
2018-10-16T11:18:48.660Z,23.70
2018-10-16T11:21:16.851Z,23.20
2018-10-16T11:23:44.953Z,22.80
2018-10-16T11:26:13.095Z,22.50
2018-10-16T11:28:41.223Z,22.20
2018-10-16T11:31:09.311Z,21.90
2018-10-16T11:33:37.521Z,21.70
2018-10-16T11:36:05.680Z,21.60
2018-10-16T11:38:33.812Z,21.50
2018-10-16T11:41:01.903Z,21.50
2018-10-16T11:43:30.014Z,21.50
2018-10-16T11:45:58.153Z,21.50
2018-10-16T11:48:26.293Z,21.50
2018-10-16T11:50:54.422Z,21.60
2018-10-16T11:53:22.491Z,21.60
2018-10-16T11:55:50.603Z,21.40
2018-10-16T11:58:18.684Z,21.50
2018-10-16T12:00:46.835Z,21.50
2018-10-16T12:03:14.910Z,21.30
2018-10-16T12:05:43.155Z,21.10
2018-10-16T12:08:11.720Z,21.10
2018-10-16T12:10:39.798Z,21.30
2018-10-16T12:13:07.922Z,21.40
2018-10-16T12:15:35.989Z,21.40
2018-10-16T12:18:08.448Z,21.70
2018-10-16T12:22:09.144Z,21.70
2018-10-16T12:24:37.197Z,21.60
2018-10-16T12:27:05.594Z,21.50
2018-10-16T12:29:33.609Z,21.50
2018-10-16T12:32:01.764Z,21.60
2018-10-16T12:34:29.823Z,21.70
2018-10-16T12:36:57.957Z,21.90
2018-10-16T12:39:26.047Z,22.10
2018-10-16T12:41:54.143Z,22.20
2018-10-16T12:44:22.236Z,22.20
2018-10-16T12:46:50.341Z,22.30
2018-10-16T12:49:18.417Z,22.30
2018-10-16T12:51:46.501Z,22.40
2018-10-16T12:54:14.741Z,22.30
2018-10-16T12:56:42.808Z,22.20
2018-10-16T12:59:11.025Z,22.30
2018-10-16T13:01:39.058Z,22.30
2018-10-16T13:04:07.169Z,22.40
2018-10-16T13:06:35.221Z,22.50
2018-10-16T13:09:04.033Z,22.50
2018-10-16T13:11:32.069Z,22.50
2018-10-16T13:14:00.181Z,22.50
2018-10-16T13:16:28.292Z,22.30
2018-10-16T13:18:56.654Z,22.30
2018-10-16T13:21:24.832Z,22.50
2018-10-16T13:23:53.074Z,22.60
2018-10-16T13:26:21.173Z,22.60
2018-10-16T13:28:49.249Z,22.60
2018-10-16T13:31:17.318Z,22.50
2018-10-16T13:33:45.447Z,22.60
2018-10-16T13:36:13.573Z,22.90
2018-10-16T13:38:41.645Z,23.00
2018-10-16T13:41:09.742Z,23.10
2018-10-16T13:43:37.924Z,23.10
2018-10-16T13:46:06.209Z,23.20
2018-10-16T13:48:34.207Z,23.20
2018-10-16T13:51:02.389Z,23.20
2018-10-16T13:53:30.507Z,23.30
2018-10-16T13:55:58.601Z,23.40
2018-10-16T13:58:26.654Z,23.30
2018-10-16T14:00:54.902Z,23.40
2018-10-16T14:03:22.981Z,23.30
2018-10-16T14:05:51.066Z,23.20
2018-10-16T14:08:19.177Z,23.10
2018-10-16T14:10:47.257Z,23.10
2018-10-16T14:13:15.366Z,22.90
2018-10-16T14:15:43.597Z,22.80
2018-10-16T14:18:11.687Z,22.60
2018-10-16T14:20:39.836Z,22.80
2018-10-16T14:23:07.901Z,22.80
2018-10-16T14:25:35.989Z,22.90
2018-10-16T14:28:04.553Z,23.10
2018-10-16T14:30:32.775Z,23.00
2018-10-16T14:33:00.845Z,23.20
2018-10-16T14:35:29.062Z,23.20
2018-10-16T14:37:57.155Z,22.90
2018-10-16T14:40:25.295Z,22.70
2018-10-16T14:42:53.412Z,22.50
2018-10-16T14:45:21.517Z,22.60
2018-10-16T14:47:49.662Z,22.70
2018-10-16T14:50:17.832Z,22.80
2018-10-16T14:52:46.047Z,22.70
2018-10-16T14:55:14.194Z,22.50
2018-10-16T14:57:42.484Z,22.30
2018-10-16T15:00:11.656Z,22.40
2018-10-16T15:02:39.865Z,22.50
2018-10-16T15:05:12.527Z,22.50
2018-10-16T15:07:40.707Z,22.40
2018-10-16T15:10:09.337Z,22.30
2018-10-16T15:12:37.433Z,22.30
2018-10-16T15:15:06.801Z,22.40
2018-10-16T15:17:34.953Z,22.50
2018-10-16T15:20:03.161Z,22.40
2018-10-16T15:22:31.312Z,22.30
2018-10-16T15:24:59.480Z,22.60
2018-10-16T15:27:27.662Z,22.70
2018-10-16T15:29:55.824Z,22.60
2018-10-16T15:32:23.978Z,22.50
2018-10-16T15:34:52.141Z,22.40
2018-10-16T15:37:20.313Z,22.40
2018-10-16T15:39:48.474Z,22.40
2018-10-16T15:42:16.682Z,22.20
2018-10-16T15:44:44.738Z,22.00
2018-10-16T15:47:12.841Z,22.00
2018-10-16T15:49:41.011Z,22.10
2018-10-16T15:52:09.219Z,21.90
2018-10-16T15:54:37.623Z,21.80
2018-10-16T15:57:06.713Z,21.50
2018-10-16T15:59:34.842Z,21.60
2018-10-16T16:02:02.989Z,21.60
2018-10-16T16:04:31.153Z,21.50
2018-10-16T16:06:59.258Z,21.40
2018-10-16T16:09:27.450Z,21.20
2018-10-16T16:11:55.592Z,21.00
2018-10-16T16:14:23.717Z,20.70
2018-10-16T16:16:51.886Z,20.50
2018-10-16T16:19:19.995Z,20.30
2018-10-16T16:21:48.159Z,20.30
2018-10-16T16:24:16.360Z,20.10
2018-10-16T16:26:44.442Z,20.00
2018-10-16T16:29:12.576Z,19.80
2018-10-16T16:31:40.747Z,19.70
2018-10-16T16:34:08.902Z,19.60
2018-10-16T16:36:37.168Z,19.40
2018-10-16T16:39:08.541Z,19.20
2018-10-16T16:41:36.643Z,19.00
2018-10-16T16:44:05.220Z,19.00
2018-10-16T16:46:33.233Z,19.10
2018-10-16T16:49:01.467Z,19.20
2018-10-16T16:51:29.677Z,19.30
2018-10-16T16:53:57.826Z,19.50
2018-10-16T16:56:25.979Z,19.50
2018-10-16T16:58:54.189Z,19.40
2018-10-16T17:01:22.296Z,19.60
2018-10-16T17:03:50.577Z,19.70
2018-10-16T17:06:18.694Z,19.60
2018-10-16T17:08:46.858Z,19.40
2018-10-16T17:11:15.129Z,19.30
2018-10-16T17:13:44.321Z,19.20
2018-10-16T17:16:12.566Z,19.00
2018-10-16T17:18:40.671Z,18.80
2018-10-16T17:21:08.829Z,18.60
2018-10-16T17:23:37.249Z,18.40
2018-10-16T17:26:05.756Z,18.20
2018-10-16T17:28:33.723Z,18.10
2018-10-16T17:31:01.953Z,18.00
2018-10-16T17:33:30.090Z,18.00
2018-10-16T17:35:58.222Z,17.80
2018-10-16T17:38:26.421Z,17.70
2018-10-16T17:40:54.551Z,17.60
2018-10-16T17:43:22.702Z,17.60
2018-10-16T17:45:50.833Z,17.50
2018-10-16T17:48:18.963Z,17.40
2018-10-16T17:50:47.140Z,17.30
2018-10-16T17:53:15.371Z,17.30
2018-10-16T17:55:43.502Z,17.30
2018-10-16T17:58:11.709Z,17.20
2018-10-16T18:00:39.873Z,17.20
2018-10-16T18:03:08.195Z,17.10
2018-10-16T18:05:36.273Z,17.00
2018-10-16T18:08:04.713Z,17.00
2018-10-16T18:10:32.853Z,16.90
2018-10-16T18:13:01.026Z,16.80
2018-10-16T18:15:29.210Z,16.80
2018-10-16T18:17:58.209Z,16.80
2018-10-16T18:20:26.463Z,16.70
2018-10-16T18:22:54.620Z,16.70
2018-10-16T18:25:23.126Z,16.70
2018-10-16T18:27:51.303Z,16.60
2018-10-16T18:30:19.463Z,16.60
2018-10-16T18:32:47.738Z,16.50
2018-10-16T18:35:15.837Z,16.50
2018-10-16T18:37:44.328Z,16.40
2018-10-16T18:40:12.957Z,16.40
2018-10-16T18:42:41.555Z,16.30
2018-10-16T18:45:11.249Z,16.40
2018-10-16T18:47:39.238Z,16.30
2018-10-16T18:50:08.386Z,16.30
2018-10-16T18:52:36.487Z,16.20
2018-10-16T18:55:06.321Z,16.20
2018-10-16T18:57:34.440Z,16.30
2018-10-16T19:00:02.975Z,16.30
2018-10-16T19:02:31.133Z,16.40
2018-10-16T19:04:59.215Z,16.30
2018-10-16T19:07:27.318Z,16.30
2018-10-16T19:09:55.485Z,16.20
2018-10-16T19:12:23.719Z,16.10
2018-10-16T19:14:51.936Z,16.20
2018-10-16T19:17:20.097Z,16.10
2018-10-16T19:19:48.299Z,16.00
2018-10-16T19:22:16.385Z,16.00
2018-10-16T19:24:44.506Z,16.00
2018-10-16T19:27:12.721Z,16.10
2018-10-16T19:29:40.797Z,16.10
2018-10-16T19:32:08.941Z,16.10
2018-10-16T19:34:37.014Z,16.10
2018-10-16T19:37:05.490Z,16.10
2018-10-16T19:39:33.565Z,16.00
2018-10-16T19:42:01.895Z,16.00
2018-10-16T19:44:29.983Z,16.00
2018-10-16T19:46:58.234Z,15.90
2018-10-16T19:49:26.358Z,15.90
2018-10-16T19:51:54.457Z,16.00
2018-10-16T19:54:22.689Z,16.00
2018-10-16T19:56:50.834Z,16.00
2018-10-16T19:59:18.957Z,15.90
2018-10-16T20:01:47.099Z,15.90
2018-10-16T20:04:15.230Z,15.80
2018-10-16T20:06:44.157Z,15.90
2018-10-16T20:09:12.703Z,15.90
2018-10-16T20:11:40.821Z,15.80
2018-10-16T20:14:08.994Z,15.70
2018-10-16T20:16:37.183Z,15.70
2018-10-16T20:19:05.555Z,15.70
2018-10-16T20:21:33.762Z,15.70
2018-10-16T20:24:01.881Z,15.60
2018-10-16T20:26:30.142Z,15.70
2018-10-16T20:28:58.265Z,15.80
2018-10-16T20:31:26.482Z,15.80
2018-10-16T20:33:54.585Z,15.70
2018-10-16T20:36:22.784Z,16.00
2018-10-16T20:38:51.010Z,16.30
2018-10-16T20:41:19.281Z,16.50
2018-10-16T20:43:47.413Z,16.50
2018-10-16T20:46:15.541Z,16.60
2018-10-16T20:48:43.864Z,16.70
2018-10-16T20:51:12.025Z,16.60
2018-10-16T20:53:40.229Z,16.50
2018-10-16T20:56:08.409Z,16.30
2018-10-16T21:01:15.156Z,16.30
2018-10-16T21:03:43.402Z,16.40
2018-10-16T21:06:12.035Z,16.40
2018-10-16T21:08:40.040Z,16.30
2018-10-16T21:11:08.379Z,16.30
2018-10-16T21:13:36.672Z,16.20
2018-10-16T21:16:05.024Z,16.20
2018-10-16T21:18:33.276Z,16.00
2018-10-16T21:21:01.605Z,15.80
2018-10-16T21:23:29.861Z,15.70
2018-10-16T21:25:58.086Z,15.60
2018-10-16T21:28:26.310Z,15.60
2018-10-16T21:30:54.541Z,15.60
2018-10-16T21:33:22.820Z,15.50
2018-10-16T21:35:51.021Z,15.50
2018-10-16T21:38:19.307Z,15.40
2018-10-16T21:40:47.505Z,15.40
2018-10-16T21:43:15.837Z,15.40
2018-10-16T21:45:44.721Z,15.40
2018-10-16T21:48:13.039Z,15.30
2018-10-16T21:50:41.348Z,15.20
2018-10-16T21:53:09.655Z,15.20
2018-10-16T21:55:37.827Z,15.10
2018-10-16T21:58:06.323Z,15.20
2018-10-16T22:00:40.011Z,15.10
2018-10-16T22:03:08.230Z,15.00
2018-10-16T22:05:36.493Z,15.00
2018-10-16T22:08:04.794Z,14.90
2018-10-16T22:10:32.928Z,14.90
2018-10-16T22:13:01.178Z,14.80
2018-10-16T22:15:29.488Z,14.80
2018-10-16T22:17:57.705Z,14.70
2018-10-16T22:20:26.141Z,14.70
2018-10-16T22:22:54.368Z,14.60
2018-10-16T22:25:22.582Z,14.60
2018-10-16T22:27:50.795Z,14.60
2018-10-16T22:30:18.989Z,14.50
2018-10-16T22:32:47.244Z,14.40
2018-10-16T22:35:15.512Z,14.40
2018-10-16T22:37:43.633Z,14.40
2018-10-16T22:40:11.884Z,14.30
2018-10-16T22:42:40.166Z,14.30
2018-10-16T22:45:08.904Z,14.30
2018-10-16T22:47:37.293Z,14.20
2018-10-16T22:50:08.603Z,14.10
2018-10-16T22:52:36.908Z,14.00
2018-10-16T22:55:05.968Z,14.00
2018-10-16T22:57:34.206Z,13.90
2018-10-16T23:00:02.480Z,13.80
2018-10-16T23:02:30.667Z,13.80
2018-10-16T23:04:58.903Z,13.70
2018-10-16T23:07:27.121Z,13.60
2018-10-16T23:09:55.289Z,13.60
2018-10-16T23:12:23.537Z,13.50
2018-10-16T23:14:51.716Z,13.40
2018-10-16T23:17:19.899Z,13.40
2018-10-16T23:19:48.077Z,13.30
2018-10-16T23:22:16.244Z,13.30
2018-10-16T23:24:44.544Z,13.20
2018-10-16T23:27:12.696Z,13.20
2018-10-16T23:29:40.873Z,13.10
2018-10-16T23:32:09.043Z,13.00
2018-10-16T23:34:37.245Z,13.00
2018-10-16T23:37:05.699Z,12.90
2018-10-16T23:39:33.939Z,12.90
2018-10-16T23:42:02.125Z,12.90
2018-10-16T23:44:30.314Z,12.90
2018-10-16T23:46:58.580Z,12.80
2018-10-16T23:49:26.764Z,12.70
2018-10-16T23:51:54.941Z,12.70
2018-10-16T23:54:23.153Z,12.60
2018-10-16T23:56:51.321Z,12.60
2018-10-16T23:59:19.503Z,12.50
